Trebloc, Mississippi
Current Conditions -  °F | °C
As of 12:55 AM on Monday 24 Nov 2014 (Local Time) from KM40 Reporting Station
Clear Clear  
Wind Chill: 63°   Ceiling: Unl
Heat Index: 63°   Visibility: 8mi
Dew Point: 46°   Wind: 10mph
Humidity: 55%   Direction: 180°S
Pressure: 29.59"   Gusts: 16mph
Location:  33.84°N, 88.83°W
Report Text: KM40 240655Z AUTO 18009G14KT 8SM CLR 17/08 A2959 RMK AO2
Loading
Personal Weather Stations






























Interactive Weather Map New forecast layout! Learn more

10-Day Weather Forecast

Advertisements
Track Severe Weather on mobile